Time;durP1;ratioP1;P1;durP2;ratioP2;P2;SDS_P1;SDS_P2;PMS_P1;PMS_P2;Temp;Humidity;BMP_temperature;BMP_pressure;BME280_temperature;BME280_humidity;BME280_pressure;Samples;Min_cycle;Max_cycle;Signal;HPM_P1;HPM_P2
2022/10/23 00:00:02;;;;;;;;;;;11.90;99.90;;;;;;5107151;28;20009;-65
2022/10/23 00:02:28;;;;;;;;;;;11.90;99.90;;;;;;5073709;28;19925;-66
2022/10/23 00:04:53;;;;;;;;;;;11.90;99.90;;;;;;5074329;28;19936;-65
2022/10/23 00:07:19;;;;;;;;;;;11.90;99.90;;;;;;5074239;28;19931;-65
2022/10/23 00:09:44;;;;;;;;;;;11.80;99.90;;;;;;5074494;28;19924;-65
2022/10/23 00:12:10;;;;;;;;;;;11.80;99.90;;;;;;5073042;28;19931;-65
2022/10/23 00:14:36;;;;;;;;;;;11.80;99.90;;;;;;5106492;28;19974;-65
2022/10/23 00:17:01;;;;;;;;;;;11.80;99.90;;;;;;5074454;28;20334;-65
2022/10/23 00:19:27;;;;;;;;;;;11.80;99.90;;;;;;5074139;28;19947;-65
2022/10/23 00:21:52;;;;;;;;;;;11.80;99.90;;;;;;5073237;28;19997;-66
2022/10/23 00:24:18;;;;;;;;;;;11.80;99.90;;;;;;5072931;28;19925;-65
2022/10/23 00:26:43;;;;;;;;;;;11.70;99.90;;;;;;5073277;28;19925;-66
2022/10/23 00:29:09;;;;;;;;;;;11.70;99.90;;;;;;5074500;28;19925;-66
2022/10/23 00:31:35;;;;;;;;;;;11.70;99.90;;;;;;5072604;28;20002;-65
2022/10/23 00:34:00;;;;;;;;;;;11.70;99.90;;;;;;5074084;28;20365;-66
2022/10/23 00:36:26;;;;;;;;;;;11.70;99.90;;;;;;5072258;28;19929;-65
2022/10/23 00:38:52;;;;;;;;;;;11.70;99.90;;;;;;5072662;28;19928;-65
2022/10/23 00:41:20;;;;;;;;;;;11.70;99.90;;;;;;5073708;28;20049;-67
2022/10/23 00:44:01;;;;;;;;;;;11.70;99.90;;;;;;5073677;28;19971;-66
2022/10/23 00:46:26;;;;;;;;;;;11.60;99.90;;;;;;5073290;28;19943;-66
2022/10/23 00:48:52;;;;;;;;;;;11.70;99.90;;;;;;5072260;28;19924;-66
2022/10/23 00:51:18;;;;;;;;;;;11.60;99.90;;;;;;5089328;28;20019;-67
2022/10/23 00:53:44;;;;;;;;;;;11.60;99.90;;;;;;5073497;28;20319;-65
2022/10/23 00:56:10;;;;;;;;;;;11.60;99.90;;;;;;5071479;28;19947;-65
2022/10/23 00:58:35;;;;;;;;;;;11.50;99.90;;;;;;5073200;28;19928;-66
2022/10/23 01:01:01;;;;;;;;;;;11.50;99.90;;;;;;5106069;28;20288;-66
2022/10/23 01:03:27;;;;;;;;;;;11.50;99.90;;;;;;5073167;28;19932;-66
2022/10/23 01:06:01;;;;;;;;;;;11.50;99.90;;;;;;5106045;28;19960;-66
2022/10/23 01:08:47;;;;;;;;;;;11.50;99.90;;;;;;5072888;28;19954;-65
2022/10/23 01:11:21;;;;;;;;;;;11.50;99.90;;;;;;5072677;28;19924;-65
2022/10/23 01:14:06;;;;;;;;;;;11.40;99.90;;;;;;5072003;28;20007;-65
2022/10/23 01:16:32;;;;;;;;;;;11.40;99.90;;;;;;5073462;28;19924;-65
2022/10/23 01:19:00;;;;;;;;;;;11.40;99.90;;;;;;5073181;28;20298;-65
2022/10/23 01:21:44;;;;;;;;;;;11.40;99.90;;;;;;5071719;28;19940;-65
2022/10/23 01:24:18;;;;;;;;;;;11.40;99.90;;;;;;5073168;28;19925;-65
2022/10/23 01:27:02;;;;;;;;;;;11.40;99.90;;;;;;5105226;28;19932;-65
2022/10/23 01:29:40;;;;;;;;;;;11.40;99.90;;;;;;5088389;28;20028;-65
2022/10/23 01:32:09;;;;;;;;;;;11.40;99.90;;;;;;5072907;28;19986;-65
2022/10/23 01:34:38;;;;;;;;;;;11.40;99.90;;;;;;5072562;28;19931;-66
2022/10/23 01:37:05;;;;;;;;;;;11.30;99.90;;;;;;5072126;28;19924;-66
2022/10/23 01:39:35;;;;;;;;;;;11.40;99.90;;;;;;5104525;28;20264;-66
2022/10/23 01:42:04;;;;;;;;;;;11.30;99.90;;;;;;5072187;28;19924;-66
2022/10/23 01:44:35;;;;;;;;;;;11.30;99.90;;;;;;5105026;28;20318;-66
2022/10/23 01:47:02;;;;;;;;;;;11.20;99.90;;;;;;5072515;28;19932;-66
2022/10/23 01:49:28;;;;;;;;;;;11.20;99.90;;;;;;5104842;28;19944;-66
2022/10/23 01:51:56;;;;;;;;;;;11.20;99.90;;;;;;5071170;28;19968;-66
2022/10/23 01:54:24;;;;;;;;;;;11.10;99.90;;;;;;5071311;28;19924;-66
2022/10/23 01:56:50;;;;;;;;;;;11.10;99.90;;;;;;5071877;28;20069;-66
2022/10/23 01:59:19;;;;;;;;;;;11.10;99.90;;;;;;5071369;28;20023;-66
2022/10/23 02:01:47;;;;;;;;;;;11.10;99.90;;;;;;5087607;28;19932;-67
2022/10/23 02:04:17;;;;;;;;;;;11.00;99.90;;;;;;5072384;28;20060;-67
2022/10/23 02:06:42;;;;;;;;;;;11.00;99.90;;;;;;5104676;28;19964;-67
2022/10/23 02:09:08;;;;;;;;;;;11.00;99.90;;;;;;5072150;28;19925;-65
2022/10/23 02:11:38;;;;;;;;;;;11.00;99.90;;;;;;5071827;28;19924;-65
2022/10/23 02:14:17;;;;;;;;;;;11.00;99.90;;;;;;5072271;28;19925;-66
2022/10/23 02:16:49;;;;;;;;;;;10.90;99.90;;;;;;5104994;28;19924;-65
2022/10/23 02:19:40;;;;;;;;;;;10.90;99.90;;;;;;5071239;28;20015;-66
2022/10/23 02:22:08;;;;;;;;;;;10.90;99.90;;;;;;5072177;28;20295;-67
2022/10/23 02:24:37;;;;;;;;;;;10.90;99.90;;;;;;5070776;28;19924;-65
2022/10/23 02:27:06;;;;;;;;;;;10.90;99.90;;;;;;5070612;28;19925;-66
2022/10/23 02:29:39;;;;;;;;;;;10.90;99.90;;;;;;5071112;28;19924;-65
2022/10/23 02:32:06;;;;;;;;;;;10.90;99.90;;;;;;5105187;28;19928;-65
2022/10/23 02:34:32;;;;;;;;;;;10.80;99.90;;;;;;5104090;28;19931;-67
2022/10/23 02:36:57;;;;;;;;;;;10.80;99.90;;;;;;5070897;28;20294;-65
2022/10/23 02:39:25;;;;;;;;;;;10.80;99.90;;;;;;5071848;28;20263;-66
2022/10/23 02:42:13;;;;;;;;;;;10.80;99.90;;;;;;5071384;28;19924;-66
2022/10/23 02:44:52;;;;;;;;;;;10.80;99.90;;;;;;5071325;28;20053;-66
2022/10/23 02:47:30;;;;;;;;;;;10.70;99.90;;;;;;5104860;28;19928;-66
2022/10/23 02:50:11;;;;;;;;;;;10.70;99.90;;;;;;5071215;28;20010;-66
2022/10/23 02:52:36;;;;;;;;;;;10.70;99.90;;;;;;5070293;28;19936;-67
2022/10/23 02:55:13;;;;;;;;;;;10.70;99.90;;;;;;5070349;28;20299;-66
2022/10/23 02:57:41;;;;;;;;;;;10.70;99.90;;;;;;5071445;28;19926;-66
2022/10/23 03:00:10;;;;;;;;;;;10.70;99.90;;;;;;5071730;28;19929;-66
2022/10/23 03:02:43;;;;;;;;;;;10.70;99.90;;;;;;5071281;28;19929;-66
2022/10/23 03:05:11;;;;;;;;;;;10.60;99.90;;;;;;5071580;28;19924;-66
2022/10/23 03:07:38;;;;;;;;;;;10.70;99.90;;;;;;5087142;28;19929;-66
2022/10/23 03:10:04;;;;;;;;;;;10.60;99.90;;;;;;5104590;28;20276;-65
2022/10/23 03:12:29;;;;;;;;;;;10.60;99.90;;;;;;5053647;28;19932;-66
2022/10/23 03:14:55;;;;;;;;;;;10.60;99.90;;;;;;5103771;28;19927;-66
2022/10/23 03:17:20;;;;;;;;;;;10.60;99.90;;;;;;5104564;28;20027;-65
2022/10/23 03:19:46;;;;;;;;;;;10.60;99.90;;;;;;5086540;28;20383;-66
2022/10/23 03:22:11;;;;;;;;;;;10.60;99.90;;;;;;5070283;28;19997;-65
2022/10/23 03:24:37;;;;;;;;;;;10.60;99.90;;;;;;5071006;28;19932;-68
2022/10/23 03:27:02;;;;;;;;;;;10.50;99.90;;;;;;5070144;28;20363;-66
2022/10/23 03:29:28;;;;;;;;;;;10.60;99.90;;;;;;5071277;28;19924;-66
2022/10/23 03:31:54;;;;;;;;;;;10.50;99.90;;;;;;5090079;28;20032;-66
2022/10/23 03:34:20;;;;;;;;;;;10.60;99.90;;;;;;5074737;28;20078;-66
2022/10/23 03:36:45;;;;;;;;;;;10.60;99.90;;;;;;5073507;28;20062;-66
2022/10/23 03:39:11;;;;;;;;;;;10.60;99.90;;;;;;5107202;28;19931;-66
2022/10/23 03:41:36;;;;;;;;;;;10.60;99.90;;;;;;5107757;28;19981;-66
2022/10/23 03:44:02;;;;;;;;;;;10.60;99.90;;;;;;5089366;28;19947;-66
2022/10/23 03:46:28;;;;;;;;;;;10.70;99.90;;;;;;5107432;28;19928;-67
2022/10/23 03:48:57;;;;;;;;;;;10.70;99.90;;;;;;5073312;28;19925;-66
2022/10/23 03:51:22;;;;;;;;;;;10.70;99.90;;;;;;5107956;28;19939;-67
2022/10/23 03:53:48;;;;;;;;;;;10.80;99.90;;;;;;5074144;28;19925;-66
2022/10/23 03:56:13;;;;;;;;;;;10.80;99.90;;;;;;5073850;28;20325;-66
2022/10/23 03:58:39;;;;;;;;;;;10.70;99.90;;;;;;5074714;28;19931;-66
2022/10/23 04:01:04;;;;;;;;;;;10.70;99.90;;;;;;5074682;28;19928;-66
2022/10/23 04:03:30;;;;;;;;;;;10.70;99.90;;;;;;5074452;28;19955;-66
2022/10/23 04:05:56;;;;;;;;;;;10.60;99.90;;;;;;5089818;28;20302;-67
2022/10/23 04:08:21;;;;;;;;;;;10.70;99.90;;;;;;5073721;28;20007;-67
2022/10/23 04:10:47;;;;;;;;;;;10.70;99.90;;;;;;5073931;28;19924;-67
2022/10/23 04:13:12;;;;;;;;;;;10.60;99.90;;;;;;5074086;28;19925;-67
2022/10/23 04:15:38;;;;;;;;;;;10.60;99.90;;;;;;5074325;28;19932;-67
2022/10/23 04:18:03;;;;;;;;;;;10.60;99.90;;;;;;5072655;28;20548;-66
2022/10/23 04:20:30;;;;;;;;;;;10.60;99.90;;;;;;5107036;28;20425;-66
2022/10/23 04:22:56;;;;;;;;;;;10.50;99.90;;;;;;5073873;28;19932;-66
2022/10/23 04:25:21;;;;;;;;;;;10.50;99.90;;;;;;5074393;28;19924;-66
2022/10/23 04:27:47;;;;;;;;;;;10.50;99.90;;;;;;5072863;28;19924;-66
2022/10/23 04:30:13;;;;;;;;;;;10.50;99.90;;;;;;5074078;28;19925;-66
2022/10/23 04:32:38;;;;;;;;;;;10.50;99.90;;;;;;5073999;28;20434;-67
2022/10/23 04:35:04;;;;;;;;;;;10.50;99.90;;;;;;5072200;28;20015;-66
2022/10/23 04:37:30;;;;;;;;;;;10.50;99.90;;;;;;5089417;28;20379;-66
2022/10/23 04:39:55;;;;;;;;;;;10.40;99.90;;;;;;5088550;28;19950;-66
2022/10/23 04:42:21;;;;;;;;;;;10.40;99.90;;;;;;5072911;28;19924;-66
2022/10/23 04:44:47;;;;;;;;;;;10.40;99.90;;;;;;5072306;28;19991;-68
2022/10/23 04:47:12;;;;;;;;;;;10.40;99.90;;;;;;5073247;28;19948;-67
2022/10/23 04:49:38;;;;;;;;;;;10.40;99.90;;;;;;5106042;28;19967;-66
2022/10/23 04:52:03;;;;;;;;;;;10.40;99.90;;;;;;5072744;28;19924;-66
2022/10/23 04:54:33;;;;;;;;;;;10.40;99.90;;;;;;5073164;28;20279;-66
2022/10/23 04:56:59;;;;;;;;;;;10.40;99.90;;;;;;5105912;28;19971;-66
2022/10/23 04:59:25;;;;;;;;;;;10.40;99.90;;;;;;5073333;28;19931;-66
2022/10/23 05:01:50;;;;;;;;;;;10.40;99.90;;;;;;5071803;28;19924;-67
2022/10/23 05:04:16;;;;;;;;;;;10.40;99.90;;;;;;5106419;28;19929;-66
2022/10/23 05:06:41;;;;;;;;;;;10.40;99.90;;;;;;5073400;28;20381;-66
2022/10/23 05:09:07;;;;;;;;;;;10.50;99.90;;;;;;5073115;28;19979;-66
2022/10/23 05:11:32;;;;;;;;;;;10.50;99.90;;;;;;5105671;28;19925;-66
2022/10/23 05:13:58;;;;;;;;;;;10.50;99.90;;;;;;5072979;28;20022;-66
2022/10/23 05:16:45;;;;;;;;;;;10.40;99.90;;;;;;5105717;28;20286;-66
2022/10/23 05:19:13;;;;;;;;;;;10.50;99.90;;;;;;5072769;28;19920;-66
2022/10/23 05:21:39;;;;;;;;;;;10.50;99.90;;;;;;5105391;28;19971;-66
2022/10/23 05:24:05;;;;;;;;;;;10.50;99.90;;;;;;5105313;28;19980;-66
2022/10/23 05:26:30;;;;;;;;;;;10.50;99.90;;;;;;5073052;28;19978;-66
2022/10/23 05:28:56;;;;;;;;;;;10.50;99.90;;;;;;5105615;28;20367;-66
2022/10/23 05:31:23;;;;;;;;;;;10.50;99.90;;;;;;5055379;28;19924;-66
2022/10/23 05:33:49;;;;;;;;;;;10.50;99.90;;;;;;5072757;28;19959;-66
2022/10/23 05:36:15;;;;;;;;;;;10.50;99.90;;;;;;5088391;28;19979;-66
2022/10/23 05:38:40;;;;;;;;;;;10.50;99.90;;;;;;5072033;28;20253;-66
2022/10/23 05:41:06;;;;;;;;;;;10.50;99.90;;;;;;5071272;28;19935;-66
2022/10/23 05:43:31;;;;;;;;;;;10.50;99.90;;;;;;5104705;28;19924;-66
2022/10/23 05:45:58;;;;;;;;;;;10.50;99.90;;;;;;5104550;28;19932;-66
2022/10/23 05:48:24;;;;;;;;;;;10.50;99.90;;;;;;5071454;28;19939;-66
2022/10/23 05:50:49;;;;;;;;;;;10.50;99.90;;;;;;5071722;28;19924;-66
2022/10/23 05:53:15;;;;;;;;;;;10.60;99.90;;;;;;5104742;28;20515;-67
2022/10/23 05:55:41;;;;;;;;;;;10.60;99.90;;;;;;5105002;28;20019;-67
2022/10/23 05:58:06;;;;;;;;;;;10.60;99.90;;;;;;5104720;28;19928;-66
2022/10/23 06:00:32;;;;;;;;;;;10.60;99.90;;;;;;5087924;28;19946;-66
2022/10/23 06:03:00;;;;;;;;;;;10.60;99.90;;;;;;5070492;28;19924;-68
2022/10/23 06:05:26;;;;;;;;;;;10.60;99.90;;;;;;5105211;28;19928;-66
2022/10/23 06:07:55;;;;;;;;;;;10.50;99.90;;;;;;5070948;28;19925;-66
2022/10/23 06:10:21;;;;;;;;;;;10.50;99.90;;;;;;5070482;28;19931;-66
2022/10/23 06:12:46;;;;;;;;;;;10.60;99.90;;;;;;5104919;28;19924;-66
2022/10/23 06:15:12;;;;;;;;;;;10.50;99.90;;;;;;5104105;28;20011;-66
2022/10/23 06:17:38;;;;;;;;;;;10.50;99.90;;;;;;5071063;28;19957;-66
2022/10/23 06:20:03;;;;;;;;;;;10.50;99.90;;;;;;5070509;28;19924;-66
2022/10/23 06:22:29;;;;;;;;;;;10.60;99.90;;;;;;5071614;28;20221;-66
2022/10/23 06:24:55;;;;;;;;;;;10.60;99.90;;;;;;5104193;28;19975;-66
2022/10/23 06:27:20;;;;;;;;;;;10.60;99.90;;;;;;5071680;28;19924;-67
2022/10/23 06:29:46;;;;;;;;;;;10.60;99.90;;;;;;5071999;28;19928;-67
2022/10/23 06:32:12;;;;;;;;;;;10.60;99.90;;;;;;5104508;28;19924;-66
2022/10/23 06:34:37;;;;;;;;;;;10.60;99.90;;;;;;5072068;28;19968;-66
2022/10/23 06:37:03;;;;;;;;;;;10.60;99.90;;;;;;5086975;28;19925;-67
2022/10/23 06:39:28;;;;;;;;;;;10.70;99.90;;;;;;5104686;28;20421;-66
2022/10/23 06:41:54;;;;;;;;;;;10.60;99.90;;;;;;5104368;28;19947;-66
2022/10/23 06:44:19;;;;;;;;;;;10.70;99.90;;;;;;5087241;28;19954;-66
2022/10/23 06:46:48;;;;;;;;;;;10.60;99.90;;;;;;5071596;28;19924;-66
2022/10/23 06:49:14;;;;;;;;;;;10.60;99.90;;;;;;5071288;28;20022;-68
2022/10/23 06:51:40;;;;;;;;;;;10.60;99.90;;;;;;5071628;28;19932;-72
2022/10/23 06:54:06;;;;;;;;;;;10.60;99.90;;;;;;5070055;28;19928;-70
2022/10/23 06:56:33;;;;;;;;;;;10.70;99.90;;;;;;5104308;28;19924;-70
2022/10/23 06:59:00;;;;;;;;;;;10.70;99.90;;;;;;5104267;28;20032;-72
2022/10/23 07:01:25;;;;;;;;;;;10.70;99.90;;;;;;5069974;28;19925;-71
2022/10/23 07:03:51;;;;;;;;;;;10.70;99.90;;;;;;5070716;28;19924;-71
2022/10/23 07:06:16;;;;;;;;;;;10.70;99.90;;;;;;5090686;28;20276;-72
2022/10/23 07:08:42;;;;;;;;;;;10.70;99.90;;;;;;5108152;28;20027;-69
2022/10/23 07:11:09;;;;;;;;;;;10.70;99.90;;;;;;5090941;28;19924;-70
2022/10/23 07:13:35;;;;;;;;;;;10.70;99.90;;;;;;5075296;28;19931;-70
2022/10/23 07:16:10;;;;;;;;;;;10.80;99.90;;;;;;5074306;28;19924;-72
2022/10/23 07:18:35;;;;;;;;;;;10.80;99.90;;;;;;5074263;28;19925;-70
2022/10/23 07:21:01;;;;;;;;;;;10.80;99.90;;;;;;5074745;28;19954;-70
2022/10/23 07:23:26;;;;;;;;;;;10.90;99.90;;;;;;5106634;28;19932;-70
2022/10/23 07:25:52;;;;;;;;;;;10.90;99.90;;;;;;5073342;28;19925;-71
2022/10/23 07:28:17;;;;;;;;;;;11.00;99.90;;;;;;5072935;28;19924;-70
2022/10/23 07:30:43;;;;;;;;;;;11.00;99.90;;;;;;5107464;28;20467;-71
2022/10/23 07:33:11;;;;;;;;;;;11.00;99.90;;;;;;5090259;28;19931;-69
2022/10/23 07:35:38;;;;;;;;;;;11.00;99.90;;;;;;5107180;28;20057;-71
2022/10/23 07:38:03;;;;;;;;;;;11.00;99.90;;;;;;5074907;28;19968;-71
2022/10/23 07:40:29;;;;;;;;;;;11.10;99.90;;;;;;5090615;28;19920;-70
2022/10/23 07:42:55;;;;;;;;;;;11.10;99.90;;;;;;5073459;28;19931;-70
2022/10/23 07:45:21;;;;;;;;;;;11.10;99.90;;;;;;5073528;28;19925;-70
2022/10/23 07:47:50;;;;;;;;;;;11.20;99.90;;;;;;5073453;28;19929;-70
2022/10/23 07:50:16;;;;;;;;;;;11.20;99.90;;;;;;5090200;28;19929;-70
2022/10/23 07:52:42;;;;;;;;;;;11.20;99.90;;;;;;5107667;28;19974;-70
2022/10/23 07:55:08;;;;;;;;;;;11.20;99.90;;;;;;5107297;28;19929;-71
2022/10/23 07:57:33;;;;;;;;;;;11.20;99.90;;;;;;5074162;28;19924;-70
2022/10/23 07:59:59;;;;;;;;;;;11.30;99.90;;;;;;5074292;28;20429;-70
2022/10/23 08:02:25;;;;;;;;;;;11.30;99.90;;;;;;5074045;28;19946;-69
2022/10/23 08:04:51;;;;;;;;;;;11.30;99.90;;;;;;5090303;28;19924;-71
2022/10/23 08:07:17;;;;;;;;;;;11.40;99.90;;;;;;5072462;28;19932;-70
2022/10/23 08:09:43;;;;;;;;;;;11.40;99.90;;;;;;5073887;28;19924;-71
2022/10/23 08:12:08;;;;;;;;;;;11.50;99.90;;;;;;5074423;28;19924;-69
2022/10/23 08:14:34;;;;;;;;;;;11.50;99.90;;;;;;5074070;28;19991;-70
2022/10/23 08:17:00;;;;;;;;;;;11.50;99.90;;;;;;5089212;28;19924;-68
2022/10/23 08:19:25;;;;;;;;;;;11.60;99.90;;;;;;5074184;28;19931;-69
2022/10/23 08:21:53;;;;;;;;;;;11.70;99.90;;;;;;5073119;28;19924;-69
2022/10/23 08:24:19;;;;;;;;;;;11.70;99.90;;;;;;5106814;28;19924;-69
2022/10/23 08:26:44;;;;;;;;;;;11.70;99.90;;;;;;5107227;28;19994;-69
2022/10/23 08:29:10;;;;;;;;;;;11.80;99.90;;;;;;5089817;28;20352;-71
2022/10/23 08:31:36;;;;;;;;;;;11.80;99.90;;;;;;5073907;28;20595;-69
2022/10/23 08:34:01;;;;;;;;;;;11.90;99.90;;;;;;5073860;28;19925;-70
2022/10/23 08:36:27;;;;;;;;;;;11.90;99.90;;;;;;5073722;28;19931;-69
2022/10/23 08:38:54;;;;;;;;;;;12.00;99.90;;;;;;5072810;28;19969;-69
2022/10/23 08:41:34;;;;;;;;;;;12.00;99.90;;;;;;5072600;28;19925;-69
2022/10/23 08:44:16;;;;;;;;;;;12.00;99.90;;;;;;5073829;28;20261;-69
2022/10/23 08:46:45;;;;;;;;;;;12.10;99.90;;;;;;5073677;28;19924;-69
2022/10/23 08:49:10;;;;;;;;;;;12.10;99.90;;;;;;5073983;28;19947;-69
2022/10/23 08:51:40;;;;;;;;;;;12.10;99.90;;;;;;5072190;28;20038;-69
2022/10/23 08:54:09;;;;;;;;;;;12.20;99.90;;;;;;5072573;28;19936;-69
2022/10/23 08:56:36;;;;;;;;;;;12.30;99.90;;;;;;5072513;28;19924;-69
2022/10/23 08:59:11;;;;;;;;;;;12.30;99.90;;;;;;5072445;28;19930;-68
2022/10/23 09:01:39;;;;;;;;;;;12.40;99.90;;;;;;5073156;28;20362;-68
2022/10/23 09:04:05;;;;;;;;;;;12.40;99.90;;;;;;5106289;28;19924;-69
2022/10/23 09:06:30;;;;;;;;;;;12.40;99.90;;;;;;5073180;28;19925;-70
2022/10/23 09:08:56;;;;;;;;;;;12.50;99.90;;;;;;5106519;28;19934;-70
2022/10/23 09:11:26;;;;;;;;;;;12.60;99.90;;;;;;5105760;28;19930;-70
2022/10/23 09:13:55;;;;;;;;;;;12.50;99.90;;;;;;5073651;28;19925;-70
2022/10/23 09:16:39;;;;;;;;;;;12.70;99.90;;;;;;5071930;28;19976;-70
2022/10/23 09:19:14;;;;;;;;;;;12.70;99.90;;;;;;5073459;28;19924;-69
2022/10/23 09:21:39;;;;;;;;;;;12.80;99.90;;;;;;5071163;28;20391;-69
2022/10/23 09:24:10;;;;;;;;;;;12.90;99.90;;;;;;5072185;28;19928;-71
2022/10/23 09:26:38;;;;;;;;;;;12.90;99.90;;;;;;5071731;28;19925;-69
2022/10/23 09:29:27;;;;;;;;;;;13.00;99.90;;;;;;5072678;28;19929;-70
2022/10/23 09:31:54;;;;;;;;;;;13.10;99.90;;;;;;5070982;28;19931;-71
2022/10/23 09:34:22;;;;;;;;;;;13.20;99.90;;;;;;5072847;28;19928;-71
2022/10/23 09:36:52;;;;;;;;;;;13.20;99.90;;;;;;5071577;28;19925;-71
2022/10/23 09:39:21;;;;;;;;;;;13.30;99.90;;;;;;5071732;28;19924;-72
2022/10/23 09:41:47;;;;;;;;;;;13.40;99.90;;;;;;5071320;28;19948;-73
2022/10/23 09:44:18;;;;;;;;;;;13.40;99.90;;;;;;5087517;28;19925;-74
2022/10/23 09:46:54;;;;;;;;;;;13.50;99.90;;;;;;5105111;28;19924;-74
2022/10/23 09:49:24;;;;;;;;;;;13.50;99.90;;;;;;5071408;28;19928;-74
2022/10/23 09:52:08;;;;;;;;;;;13.60;99.90;;;;;;5087858;28;19977;-75
2022/10/23 09:54:57;;;;;;;;;;;13.70;99.90;;;;;;5104731;28;19924;-74
2022/10/23 09:57:42;;;;;;;;;;;13.70;99.90;;;;;;5061548;28;19931;-74
2022/10/23 10:00:14;;;;;;;;;;;13.80;99.90;;;;;;5071712;28;20024;-74
2022/10/23 10:02:41;;;;;;;;;;;13.80;99.90;;;;;;5071228;28;19924;-75
2022/10/23 10:05:25;;;;;;;;;;;13.90;99.90;;;;;;5072324;28;19936;-75
2022/10/23 10:08:17;;;;;;;;;;;13.90;99.90;;;;;;5070527;28;19970;-73
2022/10/23 10:10:46;;;;;;;;;;;14.00;99.90;;;;;;5061360;28;20314;-74
2022/10/23 10:13:17;;;;;;;;;;;14.00;99.90;;;;;;5070284;28;19924;-74
2022/10/23 10:15:47;;;;;;;;;;;14.00;99.90;;;;;;5070330;28;19925;-74
2022/10/23 10:18:22;;;;;;;;;;;14.10;99.90;;;;;;5071168;28;19928;-75
2022/10/23 10:21:06;;;;;;;;;;;14.20;99.90;;;;;;5071281;28;19928;-78
2022/10/23 10:23:49;;;;;;;;;;;14.30;99.90;;;;;;5069911;28;19992;-76
2022/10/23 10:26:33;;;;;;;;;;;14.30;99.90;;;;;;5086819;28;19925;-76
2022/10/23 10:29:14;;;;;;;;;;;14.40;99.90;;;;;;5103759;28;19925;-77
2022/10/23 10:32:15;;;;;;;;;;;14.50;99.90;;;;;;5103747;28;19925;-78
2022/10/23 10:34:57;;;;;;;;;;;14.50;99.90;;;;;;5051079;28;19924;-73
2022/10/23 10:37:38;;;;;;;;;;;14.60;99.90;;;;;;5067962;28;19925;-73
2022/10/23 10:40:04;;;;;;;;;;;14.60;99.90;;;;;;5103465;28;19924;-77
2022/10/23 10:42:35;;;;;;;;;;;14.70;99.90;;;;;;5104649;28;20008;-78
2022/10/23 10:45:00;;;;;;;;;;;14.80;99.90;;;;;;5072088;28;19924;-76
2022/10/23 10:47:26;;;;;;;;;;;14.80;99.90;;;;;;5070227;28;19928;-78
2022/10/23 10:49:59;;;;;;;;;;;14.90;99.90;;;;;;5070838;28;19920;-78
2022/10/23 10:52:30;;;;;;;;;;;14.90;99.90;;;;;;5086363;28;19924;-78
2022/10/23 10:55:22;;;;;;;;;;;15.00;99.90;;;;;;5069234;28;19925;-76
2022/10/23 10:57:57;;;;;;;;;;;15.00;99.90;;;;;;5060567;28;19990;-75
2022/10/23 11:00:23;;;;;;;;;;;15.10;99.90;;;;;;5070229;28;19925;-75
2022/10/23 11:02:56;;;;;;;;;;;15.10;99.90;;;;;;5069396;28;19924;-77
2022/10/23 11:05:25;;;;;;;;;;;15.20;99.90;;;;;;5070868;28;20335;-77
2022/10/23 11:07:53;;;;;;;;;;;15.20;99.90;;;;;;5069242;28;19932;-77
2022/10/23 11:10:18;;;;;;;;;;;15.20;99.90;;;;;;5070823;28;19943;-77
2022/10/23 11:12:45;;;;;;;;;;;15.20;99.90;;;;;;5070736;28;20035;-77
2022/10/23 11:15:15;;;;;;;;;;;15.20;99.90;;;;;;5069923;28;19931;-76
2022/10/23 11:17:44;;;;;;;;;;;15.30;99.90;;;;;;5068866;28;19930;-77
2022/10/23 11:20:22;;;;;;;;;;;15.30;99.90;;;;;;5070505;28;19931;-76
2022/10/23 11:22:54;;;;;;;;;;;15.30;99.90;;;;;;5086201;28;19936;-78
2022/10/23 11:25:38;;;;;;;;;;;15.40;99.90;;;;;;5070540;28;19936;-77
2022/10/23 11:28:27;;;;;;;;;;;15.40;99.90;;;;;;5070662;28;20024;-76
2022/10/23 11:30:55;;;;;;;;;;;15.40;99.90;;;;;;5068908;28;20297;-73
2022/10/23 11:33:27;;;;;;;;;;;15.50;99.90;;;;;;5103597;28;19924;-76
2022/10/23 11:36:02;;;;;;;;;;;15.50;99.90;;;;;;5069008;28;19925;-75
2022/10/23 11:38:30;;;;;;;;;;;15.50;99.90;;;;;;5070395;28;20279;-78
2022/10/23 11:40:57;;;;;;;;;;;15.50;99.90;;;;;;5069060;28;19925;-76
2022/10/23 11:43:32;;;;;;;;;;;15.50;99.90;;;;;;5085490;28;19974;-77
2022/10/23 11:45:58;;;;;;;;;;;15.90;99.90;;;;;;5070722;28;19925;-77
2022/10/23 11:48:40;;;;;;;;;;;15.60;99.90;;;;;;5086649;28;19924;-73
2022/10/23 11:51:24;;;;;;;;;;;15.60;99.90;;;;;;5104448;28;20485;-74
2022/10/23 11:53:50;;;;;;;;;;;15.60;99.90;;;;;;5072342;28;19924;-77
2022/10/23 11:56:15;;;;;;;;;;;15.60;99.90;;;;;;5107140;28;19925;-79
2022/10/23 11:58:55;;;;;;;;;;;15.60;99.90;;;;;;5073022;28;19974;-72
2022/10/23 12:01:21;;;;;;;;;;;15.70;99.90;;;;;;5074000;28;20319;-79
2022/10/23 12:03:47;;;;;;;;;;;15.60;99.90;;;;;;5106831;28;19977;-76
2022/10/23 12:06:24;;;;;;;;;;;15.70;99.90;;;;;;5073358;28;19925;-76
2022/10/23 12:08:52;;;;;;;;;;;15.70;99.90;;;;;;5071917;28;20275;-76
2022/10/23 12:11:25;;;;;;;;;;;15.70;99.90;;;;;;5089975;28;19924;-75
2022/10/23 12:13:50;;;;;;;;;;;15.70;99.90;;;;;;5073182;28;19939;-74
2022/10/23 12:16:16;;;;;;;;;;;15.70;99.90;;;;;;5073649;28;19929;-74
2022/10/23 12:18:49;;;;;;;;;;;15.70;99.90;;;;;;5073384;28;19925;-74
2022/10/23 12:21:20;;;;;;;;;;;15.70;99.90;;;;;;5107362;28;19932;-77
2022/10/23 12:23:53;;;;;;;;;;;15.70;99.90;;;;;;5073445;28;20318;-75
2022/10/23 12:26:18;;;;;;;;;;;15.70;99.90;;;;;;5073558;28;20011;-74
2022/10/23 12:28:53;;;;;;;;;;;15.70;99.90;;;;;;5107275;28;19972;-73
2022/10/23 12:31:37;;;;;;;;;;;15.70;99.90;;;;;;5107122;28;20095;-76
2022/10/23 12:34:17;;;;;;;;;;;15.70;99.90;;;;;;5072314;28;20012;-75
2022/10/23 12:37:02;;;;;;;;;;;15.70;99.90;;;;;;5089329;28;19931;-74
2022/10/23 12:39:32;;;;;;;;;;;15.80;99.90;;;;;;5071930;28;19925;-73
2022/10/23 12:41:59;;;;;;;;;;;15.90;99.90;;;;;;5071612;28;19947;-75
2022/10/23 12:44:25;;;;;;;;;;;15.90;99.90;;;;;;5071090;28;19931;-71
2022/10/23 12:46:53;;;;;;;;;;;15.90;99.90;;;;;;5088434;28;19924;-72
2022/10/23 12:49:20;;;;;;;;;;;15.90;99.90;;;;;;5072667;28;19925;-72
2022/10/23 12:51:54;;;;;;;;;;;15.90;99.90;;;;;;5072216;28;20341;-69
2022/10/23 12:54:20;;;;;;;;;;;15.90;99.90;;;;;;5073434;28;19998;-67
2022/10/23 12:56:46;;;;;;;;;;;16.00;99.90;;;;;;5106583;28;20375;-69
2022/10/23 12:59:17;;;;;;;;;;;15.90;99.90;;;;;;5073499;28;20276;-71
2022/10/23 13:01:42;;;;;;;;;;;15.90;99.90;;;;;;5088772;28;19925;-70
2022/10/23 13:04:11;;;;;;;;;;;16.00;99.90;;;;;;5071990;28;20156;-70
2022/10/23 13:06:37;;;;;;;;;;;16.00;99.90;;;;;;5072375;28;20446;-70
2022/10/23 13:09:04;;;;;;;;;;;16.00;99.90;;;;;;5055357;28;20025;-70
2022/10/23 13:11:30;;;;;;;;;;;16.00;99.90;;;;;;5106401;28;19924;-71
2022/10/23 13:13:55;;;;;;;;;;;16.00;99.90;;;;;;5105917;28;19924;-70
2022/10/23 13:16:22;;;;;;;;;;;16.00;99.90;;;;;;5072513;28;19924;-70
2022/10/23 13:18:48;;;;;;;;;;;16.00;99.90;;;;;;5072512;28;19932;-70
2022/10/23 13:21:21;;;;;;;;;;;16.10;99.90;;;;;;5088376;28;19925;-70
2022/10/23 13:23:47;;;;;;;;;;;16.00;99.90;;;;;;5071671;28;19929;-69
2022/10/23 13:26:28;;;;;;;;;;;16.10;99.90;;;;;;5071666;28;19925;-72
2022/10/23 13:28:54;;;;;;;;;;;16.10;99.90;;;;;;5070927;28;19928;-71
2022/10/23 13:31:20;;;;;;;;;;;16.10;99.90;;;;;;5053470;28;20226;-75
2022/10/23 13:33:53;;;;;;;;;;;16.10;99.90;;;;;;5087751;28;19991;-72
2022/10/23 13:36:22;;;;;;;;;;;16.10;99.90;;;;;;5071569;28;19924;-72
2022/10/23 13:38:57;;;;;;;;;;;16.10;99.90;;;;;;5070187;28;20294;-72
2022/10/23 13:41:23;;;;;;;;;;;16.20;99.90;;;;;;5070822;28;19932;-71
2022/10/23 13:43:48;;;;;;;;;;;16.10;99.90;;;;;;5070184;28;19931;-71
2022/10/23 13:46:18;;;;;;;;;;;16.10;99.90;;;;;;5104372;28;20011;-71
2022/10/23 13:48:43;;;;;;;;;;;16.10;99.90;;;;;;5071818;28;19967;-72
2022/10/23 13:51:29;;;;;;;;;;;16.20;99.90;;;;;;5071123;28;19932;-72
2022/10/23 13:53:56;;;;;;;;;;;16.20;99.90;;;;;;5072049;28;20272;-70
2022/10/23 13:56:22;;;;;;;;;;;16.10;99.90;;;;;;5071305;28;19974;-71
2022/10/23 13:58:48;;;;;;;;;;;16.20;99.90;;;;;;5071726;28;20318;-72
2022/10/23 14:01:22;;;;;;;;;;;16.10;99.90;;;;;;5071017;28;19924;-72
2022/10/23 14:03:49;;;;;;;;;;;16.10;99.90;;;;;;5105228;28;19924;-72
2022/10/23 14:06:14;;;;;;;;;;;16.10;99.90;;;;;;5070821;28;20381;-71
2022/10/23 14:08:40;;;;;;;;;;;16.10;99.90;;;;;;5072064;28;19932;-71
2022/10/23 14:11:05;;;;;;;;;;;16.10;99.90;;;;;;5071696;28;19928;-69
2022/10/23 14:13:31;;;;;;;;;;;16.10;99.90;;;;;;5071469;28;19925;-69
2022/10/23 14:15:57;;;;;;;;;;;16.10;99.90;;;;;;5103656;28;19924;-68
2022/10/23 14:18:23;;;;;;;;;;;16.10;99.90;;;;;;5068760;28;20287;-68
2022/10/23 14:20:49;;;;;;;;;;;16.10;99.90;;;;;;5103197;28;19924;-69
2022/10/23 14:23:14;;;;;;;;;;;16.10;99.90;;;;;;5102648;28;19996;-68
2022/10/23 14:25:40;;;;;;;;;;;16.00;99.90;;;;;;5102736;28;19978;-68